Corona Australe — IKVF2 — position and weather

sailwx.info

Track history (hours):
 
Tides and Currents Weather Stations Pressure Air Temp Water Temp Dewpoint Dewpoint Depression Visibility Wind Speed Wind Dir Waves Ship Positions

Corona Australe

Last reported at 2018-Jan-20 17:00 UTC. Time now 2018-Jan-20 17:07 UTC.
Position N 40°12' E 017°08'.

Length 165 m; draft 7.7 m.

Type: Cargo ship. MMSI: 247257200.

Date/timePositionNaut miles runAvg speedWind from/ knotsBaromVisibWave heightAir tempDewpointWater temp
2018-Jan-20 17:00N 40°12' E 017°08'612.0
2018-Jan-20 16:30N 40°18' E 017°06'611.9
2018-Jan-20 16:00N 40°24' E 017°05'510.7
2018-Jan-20 15:30N 40°29' E 017°07'2 3.1
2018-Jan-20 14:59N 40°30' E 017°09'0 0.0
2018-Jan-20 14:29N 40°30' E 017°09'0 0.0
2018-Jan-20 10:35N 40°30' E 017°09'0 0.0
2018-Jan-20 10:11N 40°30' E 017°09'0 0.0
2018-Jan-20 09:41N 40°30' E 017°09'0 0.0
2018-Jan-20 09:14N 40°30' E 017°09'0 0.0
2018-Jan-20 09:00N 40°30' E 017°09'0 0.3
2018-Jan-20 08:30N 40°30' E 017°09'1 2.1
2018-Jan-20 08:00N 40°30' E 017°08'4 8.6
2018-Jan-20 07:30N 40°25' E 017°07'510.7
2018-Jan-20 07:00N 40°20' E 017°08'611.5
2018-Jan-20 06:30N 40°14' E 017°09'611.3
2018-Jan-20 06:00N 40°09' E 017°09'611.2
2018-Jan-20 05:30N 40°03' E 017°10'611.2
2018-Jan-20 05:00N 39°58' E 017°11'611.2
2018-Jan-20 04:27N 39°51' E 017°12'511.3
2018-Jan-20 04:00N 39°46' E 017°13'611.3
2018-Jan-20 03:30N 39°41' E 017°13'511.1
2018-Jan-20 03:00N 39°35' E 017°14'711.0
2018-Jan-20 02:22N 39°28' E 017°15'410.9
2018-Jan-20 01:58N 39°24' E 017°16'11210.2
2018-Jan-19 15:00N 37°53' E 015°51'711.1
2018-Jan-19 14:23N 37°55' E 015°43'410.6
2018-Jan-19 14:00N 37°57' E 015°39'611.2
2018-Jan-19 13:28N 38°02' E 015°36'612.1
2018-Jan-19 13:00N 38°08' E 015°35'713.5
2018-Jan-19 12:29N 38°15' E 015°37'510.7
2018-Jan-19 12:00N 38°19' E 015°40'4011.1
2018-Jan-19 08:23N 38°59' E 015°36'511.4
2018-Jan-19 07:58N 39°04' E 015°36'2810.5
2018-Jan-19 05:15N 39°30' E 015°20'  
2018-Jan-12 02:47N 44°40' E 013°01'311.4
2018-Jan-12 02:30N 44°43' E 012°60'611.3
2018-Jan-12 02:00N 44°48' E 012°56'611.5
2018-Jan-12 01:30N 44°53' E 012°52'611.6
2018-Jan-12 01:00N 44°58' E 012°48'611.7
2018-Jan-12 00:30N 45°03' E 012°44'711.4
2018-Jan-11 23:54N 45°08' E 012°37'411.4
2018-Jan-11 23:30N 45°11' E 012°32'510.9
2018-Jan-11 23:00N 45°16' E 012°29'611.2
2018-Jan-11 22:30N 45°19' E 012°23'510.0
2018-Jan-11 22:00N 45°21' E 012°16'4 8.6
2018-Jan-11 21:30N 45°25' E 012°16'3 5.7
2018-Jan-11 21:00N 45°28' E 012°15'0 0.3
2018-Jan-11 20:06N 45°28' E 012°15'0 0.0
2018-Jan-11 20:00N 45°28' E 012°15'0 0.0
2018-Jan-11 19:24N 45°28' E 012°15'0 0.0
2018-Jan-11 18:59N 45°28' E 012°15'0 0.0
2018-Jan-11 15:36N 45°28' E 012°15'0 0.0
2018-Jan-11 15:27N 45°28' E 012°15'0 0.0
2018-Jan-11 14:54N 45°28' E 012°15'0 0.0
2018-Jan-11 13:26N 45°28' E 012°15'1 1.2
2018-Jan-11 13:00N 45°28' E 012°15'1 1.7
2018-Jan-11 12:30N 45°27' E 012°16'1 2.2
2018-Jan-11 12:00N 45°26' E 012°16'3 5.2
2018-Jan-11 11:30N 45°23' E 012°16'4 7.4
2018-Jan-11 11:00N 45°20' E 012°19'3 6.6
2018-Jan-11 10:30N 45°19' E 012°23'3 3.1
2018-Jan-11 09:40N 45°19' E 012°27'0 2.2
2018-Jan-11 09:28N 45°19' E 012°27'2 3.6
2018-Jan-11 09:00N 45°21' E 012°27'2 4.5
2018-Jan-11 08:28N 45°22' E 012°24'0 0.0
2018-Jan-11 07:58N 45°22' E 012°24'0 0.0
2018-Jan-11 07:28N 45°22' E 012°24'0 0.0
2018-Jan-11 06:58N 45°22' E 012°24'0 0.0
2018-Jan-11 06:28N 45°22' E 012°24'0 0.0
2018-Jan-11 05:58N 45°22' E 012°24'0 0.0
2018-Jan-11 05:28N 45°22' E 012°24'0 0.0
2018-Jan-11 04:58N 45°22' E 012°24'0 0.0
2018-Jan-11 04:28N 45°22' E 012°24'0 0.1
2018-Jan-11 03:58N 45°22' E 012°24'0 0.1
2018-Jan-11 03:28N 45°22' E 012°24'0 0.1
2018-Jan-11 02:58N 45°22' E 012°24'0 0.1
2018-Jan-11 02:28N 45°22' E 012°24'0 0.0
2018-Jan-11 01:58N 45°22' E 012°24'0 0.0
2018-Jan-11 01:28N 45°22' E 012°24'0 0.0
2018-Jan-11 00:58N 45°22' E 012°24'0 0.0
2018-Jan-11 00:28N 45°22' E 012°24'0 0.0
2018-Jan-10 23:58N 45°22' E 012°24'0 0.0
2018-Jan-10 23:28N 45°22' E 012°24'0 0.0
2018-Jan-10 22:58N 45°22' E 012°24'0 0.0
2018-Jan-10 22:28N 45°22' E 012°24'0 0.0
2018-Jan-10 21:58N 45°22' E 012°24'0 0.0
2018-Jan-10 21:28N 45°22' E 012°24'0 0.0
2018-Jan-10 20:58N 45°22' E 012°24'0 0.0
2018-Jan-10 20:28N 45°22' E 012°24'0 0.0
2018-Jan-10 19:58N 45°22' E 012°24'0 0.0
2018-Jan-10 19:28N 45°22' E 012°24'0 0.0
2018-Jan-10 18:58N 45°22' E 012°24'0 0.1
2018-Jan-10 18:28N 45°22' E 012°24'0 0.0
2018-Jan-10 17:58N 45°22' E 012°24'0 0.0
2018-Jan-10 17:28N 45°22' E 012°24'  
Track history (hours):
 
Tides and Currents Weather Stations Pressure Air Temp Water Temp Dewpoint Dewpoint Depression Visibility Wind Speed Wind Dir Waves Ship Positions

Corona Australe

Last reported at 2018-Jan-20 17:00 UTC. Time now 2018-Jan-20 17:07 UTC.
Position N 40°12' E 017°08'.

Length 165 m; draft 7.7 m.

Type: Cargo ship. MMSI: 247257200.

Date/timePositionNaut miles runAvg speedWind from/ knotsBaromVisibWave heightAir tempDewpointWater temp
2018-Jan-20 17:00N 40°12' E 017°08'612.0
2018-Jan-20 16:30N 40°18' E 017°06'611.9
2018-Jan-20 16:00N 40°24' E 017°05'510.7
2018-Jan-20 15:30N 40°29' E 017°07'2 3.1
2018-Jan-20 14:59N 40°30' E 017°09'0 0.0
2018-Jan-20 14:29N 40°30' E 017°09'0 0.0
2018-Jan-20 10:35N 40°30' E 017°09'0 0.0
2018-Jan-20 10:11N 40°30' E 017°09'0 0.0
2018-Jan-20 09:41N 40°30' E 017°09'0 0.0
2018-Jan-20 09:14N 40°30' E 017°09'0 0.0
2018-Jan-20 09:00N 40°30' E 017°09'0 0.3
2018-Jan-20 08:30N 40°30' E 017°09'1 2.1
2018-Jan-20 08:00N 40°30' E 017°08'4 8.6
2018-Jan-20 07:30N 40°25' E 017°07'510.7
2018-Jan-20 07:00N 40°20' E 017°08'611.5
2018-Jan-20 06:30N 40°14' E 017°09'611.3
2018-Jan-20 06:00N 40°09' E 017°09'611.2
2018-Jan-20 05:30N 40°03' E 017°10'611.2
2018-Jan-20 05:00N 39°58' E 017°11'611.2
2018-Jan-20 04:27N 39°51' E 017°12'511.3
2018-Jan-20 04:00N 39°46' E 017°13'611.3
2018-Jan-20 03:30N 39°41' E 017°13'511.1
2018-Jan-20 03:00N 39°35' E 017°14'711.0
2018-Jan-20 02:22N 39°28' E 017°15'410.9
2018-Jan-20 01:58N 39°24' E 017°16'11210.2
2018-Jan-19 15:00N 37°53' E 015°51'711.1
2018-Jan-19 14:23N 37°55' E 015°43'410.6
2018-Jan-19 14:00N 37°57' E 015°39'611.2
2018-Jan-19 13:28N 38°02' E 015°36'612.1
2018-Jan-19 13:00N 38°08' E 015°35'713.5
2018-Jan-19 12:29N 38°15' E 015°37'510.7
2018-Jan-19 12:00N 38°19' E 015°40'4011.1
2018-Jan-19 08:23N 38°59' E 015°36'511.4
2018-Jan-19 07:58N 39°04' E 015°36'2810.5
2018-Jan-19 05:15N 39°30' E 015°20'  
2018-Jan-12 02:47N 44°40' E 013°01'311.4
2018-Jan-12 02:30N 44°43' E 012°60'611.3
2018-Jan-12 02:00N 44°48' E 012°56'611.5
2018-Jan-12 01:30N 44°53' E 012°52'611.6
2018-Jan-12 01:00N 44°58' E 012°48'611.7
2018-Jan-12 00:30N 45°03' E 012°44'711.4
2018-Jan-11 23:54N 45°08' E 012°37'411.4
2018-Jan-11 23:30N 45°11' E 012°32'510.9
2018-Jan-11 23:00N 45°16' E 012°29'611.2
2018-Jan-11 22:30N 45°19' E 012°23'510.0
2018-Jan-11 22:00N 45°21' E 012°16'4 8.6
2018-Jan-11 21:30N 45°25' E 012°16'3 5.7
2018-Jan-11 21:00N 45°28' E 012°15'0 0.3
2018-Jan-11 20:06N 45°28' E 012°15'0 0.0
2018-Jan-11 20:00N 45°28' E 012°15'0 0.0
2018-Jan-11 19:24N 45°28' E 012°15'0 0.0
2018-Jan-11 18:59N 45°28' E 012°15'0 0.0
2018-Jan-11 15:36N 45°28' E 012°15'0 0.0
2018-Jan-11 15:27N 45°28' E 012°15'0 0.0
2018-Jan-11 14:54N 45°28' E 012°15'0 0.0
2018-Jan-11 13:26N 45°28' E 012°15'1 1.2
2018-Jan-11 13:00N 45°28' E 012°15'1 1.7
2018-Jan-11 12:30N 45°27' E 012°16'1 2.2
2018-Jan-11 12:00N 45°26' E 012°16'3 5.2
2018-Jan-11 11:30N 45°23' E 012°16'4 7.4
2018-Jan-11 11:00N 45°20' E 012°19'3 6.6
2018-Jan-11 10:30N 45°19' E 012°23'3 3.1
2018-Jan-11 09:40N 45°19' E 012°27'0 2.2
2018-Jan-11 09:28N 45°19' E 012°27'2 3.6
2018-Jan-11 09:00N 45°21' E 012°27'2 4.5
2018-Jan-11 08:28N 45°22' E 012°24'0 0.0
2018-Jan-11 07:58N 45°22' E 012°24'0 0.0
2018-Jan-11 07:28N 45°22' E 012°24'0 0.0
2018-Jan-11 06:58N 45°22' E 012°24'0 0.0
2018-Jan-11 06:28N 45°22' E 012°24'0 0.0
2018-Jan-11 05:58N 45°22' E 012°24'0 0.0
2018-Jan-11 05:28N 45°22' E 012°24'0 0.0
2018-Jan-11 04:58N 45°22' E 012°24'0 0.0
2018-Jan-11 04:28N 45°22' E 012°24'0 0.1
2018-Jan-11 03:58N 45°22' E 012°24'0 0.1
2018-Jan-11 03:28N 45°22' E 012°24'0 0.1
2018-Jan-11 02:58N 45°22' E 012°24'0 0.1
2018-Jan-11 02:28N 45°22' E 012°24'0 0.0
2018-Jan-11 01:58N 45°22' E 012°24'0 0.0
2018-Jan-11 01:28N 45°22' E 012°24'0 0.0
2018-Jan-11 00:58N 45°22' E 012°24'0 0.0
2018-Jan-11 00:28N 45°22' E 012°24'0 0.0
2018-Jan-10 23:58N 45°22' E 012°24'0 0.0
2018-Jan-10 23:28N 45°22' E 012°24'0 0.0
2018-Jan-10 22:58N 45°22' E 012°24'0 0.0
2018-Jan-10 22:28N 45°22' E 012°24'0 0.0
2018-Jan-10 21:58N 45°22' E 012°24'0 0.0
2018-Jan-10 21:28N 45°22' E 012°24'0 0.0
2018-Jan-10 20:58N 45°22' E 012°24'0 0.0
2018-Jan-10 20:28N 45°22' E 012°24'0 0.0
2018-Jan-10 19:58N 45°22' E 012°24'0 0.0
2018-Jan-10 19:28N 45°22' E 012°24'0 0.0
2018-Jan-10 18:58N 45°22' E 012°24'0 0.1
2018-Jan-10 18:28N 45°22' E 012°24'0 0.0
2018-Jan-10 17:58N 45°22' E 012°24'0 0.0
2018-Jan-10 17:28N 45°22' E 012°24'  

Dump ship's entire track history